createdAt,value
2023-02-12T00:01:27.292Z,2.91
2023-02-12T00:03:56.021Z,2.95
2023-02-12T00:06:24.974Z,3.00
2023-02-12T00:08:55.062Z,2.98
2023-02-12T00:11:26.246Z,2.93
2023-02-12T00:13:54.274Z,3.02
2023-02-12T00:16:25.017Z,3.10
2023-02-12T00:18:55.576Z,3.12
2023-02-12T00:21:24.040Z,3.12
2023-02-12T00:23:51.144Z,3.22
2023-02-12T00:26:21.193Z,3.17
2023-02-12T00:28:48.176Z,3.40
2023-02-12T00:31:21.600Z,3.49
2023-02-12T00:33:49.093Z,3.57
2023-02-12T00:36:19.055Z,3.43
2023-02-12T00:38:47.788Z,3.43
2023-02-12T00:41:15.968Z,3.28
2023-02-12T00:43:43.787Z,3.38
2023-02-12T00:46:12.114Z,3.46
2023-02-12T00:48:39.899Z,3.36
2023-02-12T00:51:07.207Z,3.24
2023-02-12T00:53:35.326Z,3.26
2023-02-12T00:56:02.960Z,3.35
2023-02-12T00:58:30.971Z,3.32
2023-02-12T01:00:57.880Z,3.26
2023-02-12T01:03:26.000Z,3.42
2023-02-12T01:05:54.807Z,3.51
2023-02-12T01:08:22.295Z,3.66
2023-02-12T01:10:58.010Z,3.63
2023-02-12T01:13:25.890Z,3.60
2023-02-12T01:16:02.782Z,3.60
2023-02-12T01:18:29.815Z,3.78
2023-02-12T01:20:59.111Z,3.74
2023-02-12T01:23:27.189Z,3.87
2023-02-12T01:25:55.341Z,3.78
2023-02-12T01:28:22.776Z,4.02
2023-02-12T01:30:49.843Z,3.84
2023-02-12T01:33:17.924Z,3.79
2023-02-12T01:35:45.941Z,3.86
2023-02-12T01:38:12.850Z,3.77
2023-02-12T01:40:40.621Z,3.86
2023-02-12T01:43:12.561Z,3.81
2023-02-12T01:45:50.457Z,3.77
2023-02-12T01:48:19.503Z,3.65
2023-02-12T01:50:49.186Z,3.60
2023-02-12T01:53:20.348Z,3.59
2023-02-12T01:55:49.089Z,3.62
2023-02-12T01:58:17.106Z,3.72
2023-02-12T02:00:44.643Z,3.80
2023-02-12T02:03:14.169Z,3.78
2023-02-12T02:05:42.133Z,3.95
2023-02-12T02:08:09.758Z,3.96
2023-02-12T02:10:37.954Z,4.00
2023-02-12T02:13:23.908Z,4.03
2023-02-12T02:15:57.847Z,3.93
2023-02-12T02:18:34.150Z,3.84
2023-02-12T02:21:36.787Z,3.84
2023-02-12T02:24:10.326Z,3.90
2023-02-12T02:27:10.839Z,3.57
2023-02-12T02:30:05.901Z,3.56
2023-02-12T02:32:50.035Z,3.57
2023-02-12T02:36:07.848Z,3.51
2023-02-12T02:38:43.160Z,3.49
2023-02-12T02:41:27.797Z,3.63
2023-02-12T02:43:56.467Z,3.73
2023-02-12T02:46:31.283Z,3.88
2023-02-12T02:49:05.823Z,3.86
2023-02-12T02:51:39.488Z,3.84
2023-02-12T02:54:13.731Z,3.71
2023-02-12T02:56:47.531Z,3.77
2023-02-12T02:59:23.397Z,3.87
2023-02-12T03:01:56.258Z,3.73
2023-02-12T03:04:32.536Z,3.68
2023-02-12T03:07:07.511Z,3.75
2023-02-12T03:09:50.899Z,3.37
2023-02-12T03:12:36.923Z,3.56
2023-02-12T03:15:18.681Z,3.47
2023-02-12T03:17:49.207Z,3.39
2023-02-12T03:20:21.324Z,3.74
2023-02-12T03:22:56.688Z,3.55
2023-02-12T03:25:36.180Z,3.21
2023-02-12T03:28:18.660Z,3.58
2023-02-12T03:31:06.886Z,3.60
2023-02-12T03:33:36.504Z,3.48
2023-02-12T03:36:22.665Z,3.14
2023-02-12T03:38:55.653Z,3.45
2023-02-12T03:41:32.956Z,3.46
2023-02-12T03:44:23.671Z,3.43
2023-02-12T03:47:02.743Z,3.35
2023-02-12T03:49:36.473Z,3.45
2023-02-12T03:52:05.137Z,3.54
2023-02-12T03:54:33.570Z,3.62
2023-02-12T03:57:24.683Z,3.52
2023-02-12T03:59:52.818Z,3.53
2023-02-12T04:02:20.627Z,3.36
2023-02-12T04:04:48.835Z,3.30
2023-02-12T04:07:17.534Z,3.04
2023-02-12T04:09:45.485Z,3.15
2023-02-12T04:12:50.172Z,3.08
2023-02-12T04:15:23.079Z,3.03
2023-02-12T04:18:00.402Z,3.16
2023-02-12T04:20:35.427Z,3.22
2023-02-12T04:23:32.589Z,3.13
2023-02-12T04:26:23.764Z,3.18
2023-02-12T04:29:26.271Z,3.30
2023-02-12T04:32:02.633Z,2.96
2023-02-12T04:34:34.773Z,2.92
2023-02-12T04:37:21.155Z,2.94
2023-02-12T04:39:50.232Z,2.95
2023-02-12T04:42:18.268Z,3.05
2023-02-12T04:44:46.077Z,3.33
2023-02-12T04:47:16.591Z,3.39
2023-02-12T04:49:44.583Z,3.31
2023-02-12T04:52:11.552Z,2.98
2023-02-12T04:54:40.188Z,2.98
2023-02-12T04:57:07.145Z,2.80
2023-02-12T04:59:34.743Z,2.89
2023-02-12T05:02:02.671Z,2.67
2023-02-12T05:04:29.585Z,2.80
2023-02-12T05:06:56.982Z,2.83
2023-02-12T05:09:24.782Z,2.99
2023-02-12T05:11:52.594Z,2.97
2023-02-12T05:14:20.499Z,3.20
2023-02-12T05:16:48.309Z,3.06
2023-02-12T05:19:16.479Z,3.19
2023-02-12T05:21:44.304Z,3.17
2023-02-12T05:24:11.275Z,3.14
2023-02-12T05:26:38.398Z,3.34
2023-02-12T05:29:06.273Z,3.65
2023-02-12T05:31:33.218Z,3.65
2023-02-12T05:34:00.400Z,3.68
2023-02-12T05:36:28.432Z,3.60
2023-02-12T05:38:58.784Z,3.39
2023-02-12T05:41:25.968Z,3.31
2023-02-12T05:43:54.154Z,3.21
2023-02-12T05:46:22.016Z,3.40
2023-02-12T05:48:49.221Z,3.39
2023-02-12T05:51:23.084Z,3.19
2023-02-12T05:54:00.702Z,3.08
2023-02-12T05:56:29.929Z,3.08
2023-02-12T05:59:04.255Z,3.09
2023-02-12T06:01:34.892Z,2.97
2023-02-12T06:04:03.914Z,3.08
2023-02-12T06:06:31.852Z,3.00
2023-02-12T06:08:59.266Z,2.72
2023-02-12T06:11:27.387Z,2.86
2023-02-12T06:13:54.305Z,3.03
2023-02-12T06:16:26.814Z,3.19
2023-02-12T06:18:55.118Z,3.46
2023-02-12T06:21:23.749Z,3.57
2023-02-12T06:23:53.444Z,3.56
2023-02-12T06:26:21.971Z,3.59
2023-02-12T06:28:49.728Z,3.55
2023-02-12T06:31:26.602Z,3.91
2023-02-12T06:33:55.718Z,3.73
2023-02-12T06:36:23.320Z,3.44
2023-02-12T06:38:51.470Z,3.57
2023-02-12T06:41:18.515Z,3.72
2023-02-12T06:43:46.324Z,3.67
2023-02-12T06:46:15.600Z,3.94
2023-02-12T06:48:43.694Z,4.06
2023-02-12T06:51:14.385Z,4.29
2023-02-12T06:53:46.294Z,4.33
2023-02-12T06:56:14.123Z,4.11
2023-02-12T06:58:46.269Z,4.41
2023-02-12T07:01:26.813Z,4.03
2023-02-12T07:03:57.775Z,4.22
2023-02-12T07:06:27.240Z,4.42
2023-02-12T07:08:58.942Z,4.53
2023-02-12T07:11:31.379Z,3.75
2023-02-12T07:13:59.989Z,3.71
2023-02-12T07:16:28.985Z,3.62
2023-02-12T07:18:56.523Z,3.84
2023-02-12T07:21:25.096Z,3.88
2023-02-12T07:23:55.043Z,4.32
2023-02-12T07:26:23.181Z,4.38
2023-02-12T07:28:56.165Z,4.09
2023-02-12T07:31:25.060Z,4.17
2023-02-12T07:33:59.067Z,4.03
2023-02-12T07:36:31.732Z,4.26
2023-02-12T07:39:00.422Z,4.15
2023-02-12T07:41:34.024Z,4.32
2023-02-12T07:44:07.776Z,4.36
2023-02-12T07:46:42.470Z,4.75
2023-02-12T07:49:16.858Z,4.91
2023-02-12T07:51:45.230Z,4.68
2023-02-12T07:54:13.151Z,4.82
2023-02-12T07:56:42.598Z,5.13
2023-02-12T07:59:15.196Z,5.16
2023-02-12T08:01:46.329Z,4.18
2023-02-12T08:04:16.366Z,4.14
2023-02-12T08:06:47.962Z,4.98
2023-02-12T08:09:19.209Z,5.86
2023-02-12T08:11:46.446Z,6.39
2023-02-12T08:14:17.497Z,6.18
2023-02-12T08:16:46.586Z,6.45
2023-02-12T08:19:20.256Z,6.00
2023-02-12T08:21:53.430Z,6.41
2023-02-12T08:24:22.387Z,6.21
2023-02-12T08:26:51.526Z,5.52
2023-02-12T08:29:22.501Z,5.49
2023-02-12T08:31:50.730Z,5.83
2023-02-12T08:34:23.459Z,5.97
2023-02-12T08:36:52.217Z,6.10
2023-02-12T08:39:20.830Z,6.28
2023-02-12T08:41:48.366Z,6.25
2023-02-12T08:44:17.299Z,5.90
2023-02-12T08:46:47.528Z,6.13
2023-02-12T08:49:19.135Z,6.01
2023-02-12T08:51:49.289Z,6.17
2023-02-12T08:54:19.436Z,6.47
2023-02-12T08:56:46.699Z,6.74
2023-02-12T08:59:16.181Z,6.40
2023-02-12T09:01:43.898Z,6.75
2023-02-12T09:04:18.467Z,7.00
2023-02-12T09:06:46.926Z,6.73
2023-02-12T09:09:14.680Z,7.09
2023-02-12T09:11:43.082Z,7.18
2023-02-12T09:14:14.975Z,7.20
2023-02-12T09:16:43.230Z,7.46
2023-02-12T09:19:13.188Z,7.33
2023-02-12T09:21:41.773Z,7.20
2023-02-12T09:24:09.661Z,6.90
2023-02-12T09:26:39.757Z,6.85
2023-02-12T09:29:06.811Z,7.15
2023-02-12T09:31:35.020Z,7.38
2023-02-12T09:34:05.838Z,7.49
2023-02-12T09:36:36.227Z,7.42
2023-02-12T09:39:05.808Z,7.26
2023-02-12T09:41:58.398Z,7.61
2023-02-12T09:44:40.454Z,7.62
2023-02-12T09:47:25.265Z,7.92
2023-02-12T09:50:05.226Z,7.73
2023-02-12T09:52:32.190Z,7.87
2023-02-12T09:55:00.557Z,7.38
2023-02-12T09:57:36.594Z,7.76
2023-02-12T10:00:08.694Z,7.51
2023-02-12T10:02:39.721Z,7.35
2023-02-12T10:05:16.991Z,7.60
2023-02-12T10:08:29.500Z,8.13
2023-02-12T10:11:26.268Z,8.17
2023-02-12T10:14:24.333Z,8.65
2023-02-12T10:17:15.203Z,9.15
2023-02-12T10:20:01.348Z,9.28
2023-02-12T10:23:11.692Z,8.34
2023-02-12T10:25:43.054Z,8.53
2023-02-12T10:28:21.982Z,8.82
2023-02-12T10:31:23.570Z,9.57
2023-02-12T10:33:51.751Z,9.11
2023-02-12T10:36:22.178Z,9.85
2023-02-12T10:38:55.695Z,10.35
2023-02-12T10:41:30.617Z,11.03
2023-02-12T10:43:58.598Z,11.03
2023-02-12T10:46:31.542Z,11.53
2023-02-12T10:49:00.840Z,11.76
2023-02-12T10:51:40.444Z,12.01
2023-02-12T10:54:38.277Z,10.86
2023-02-12T10:57:12.767Z,11.30
2023-02-12T10:59:43.019Z,11.23
2023-02-12T11:02:19.573Z,11.57
2023-02-12T11:04:48.714Z,11.62
2023-02-12T11:07:18.030Z,12.07
2023-02-12T11:09:48.895Z,12.19
2023-02-12T11:12:32.728Z,12.92
2023-02-12T11:15:03.212Z,12.00
2023-02-12T11:17:43.672Z,11.71
2023-02-12T11:20:18.023Z,11.73
2023-02-12T11:22:54.762Z,12.23
2023-02-12T11:25:25.857Z,12.48
2023-02-12T11:28:16.525Z,12.42
2023-02-12T11:31:01.219Z,12.44
2023-02-12T11:33:35.835Z,12.36
2023-02-12T11:36:23.312Z,11.49
2023-02-12T11:38:58.199Z,11.75
2023-02-12T11:41:26.792Z,11.80
2023-02-12T11:43:56.225Z,12.09
2023-02-12T11:46:26.424Z,12.00
2023-02-12T11:48:57.420Z,12.11
2023-02-12T11:51:29.516Z,12.14
2023-02-12T11:54:04.101Z,11.95
2023-02-12T11:56:47.269Z,11.82
2023-02-12T11:59:37.934Z,11.58
2023-02-12T12:02:28.833Z,11.90
2023-02-12T12:05:12.724Z,11.70
2023-02-12T12:07:48.692Z,11.83
2023-02-12T12:10:47.382Z,11.86
2023-02-12T12:13:25.056Z,11.80
2023-02-12T12:16:44.413Z,11.15
2023-02-12T12:19:42.544Z,11.21
2023-02-12T12:22:29.112Z,11.65
2023-02-12T12:25:08.577Z,11.29
2023-02-12T12:28:03.921Z,11.40
2023-02-12T12:30:52.862Z,11.26
2023-02-12T12:33:40.671Z,10.93
2023-02-12T12:36:10.879Z,11.24
2023-02-12T12:38:51.307Z,11.42
2023-02-12T12:41:37.090Z,11.41
2023-02-12T12:44:32.764Z,11.44
2023-02-12T12:47:35.430Z,11.22
2023-02-12T12:50:12.326Z,11.46
2023-02-12T12:53:18.740Z,11.36
2023-02-12T12:55:59.173Z,10.74
2023-02-12T12:58:34.659Z,10.32
2023-02-12T13:01:30.066Z,10.48
2023-02-12T13:04:33.247Z,10.81
2023-02-12T13:07:27.944Z,11.03
2023-02-12T13:10:25.252Z,11.43
2023-02-12T13:13:09.307Z,11.62
2023-02-12T13:15:55.512Z,11.75
2023-02-12T13:18:51.517Z,11.66
2023-02-12T13:21:38.128Z,11.82
2023-02-12T13:25:00.764Z,11.73
2023-02-12T13:27:38.514Z,11.24
2023-02-12T13:30:16.409Z,11.01
2023-02-12T13:33:08.392Z,11.10
2023-02-12T13:35:45.469Z,11.46
2023-02-12T13:38:42.246Z,11.31
2023-02-12T13:41:12.288Z,11.29
2023-02-12T13:44:03.732Z,11.15
2023-02-12T13:47:04.266Z,11.03
2023-02-12T13:50:09.698Z,11.36
2023-02-12T13:52:42.206Z,10.94
2023-02-12T13:55:37.243Z,10.64
2023-02-12T13:58:32.661Z,10.87
2023-02-12T14:01:07.917Z,11.09
2023-02-12T14:03:38.896Z,10.41
2023-02-12T14:06:12.688Z,10.57
2023-02-12T14:08:45.068Z,10.45
2023-02-12T14:11:18.038Z,10.76
2023-02-12T14:13:56.617Z,10.35
2023-02-12T14:16:30.847Z,10.65
2023-02-12T14:19:36.321Z,10.40
2023-02-12T14:22:31.806Z,10.50
2023-02-12T14:25:16.142Z,10.38
2023-02-12T14:27:49.365Z,10.50
2023-02-12T14:30:24.184Z,10.48
2023-02-12T14:32:58.726Z,10.59
2023-02-12T14:35:32.398Z,10.88
2023-02-12T14:38:20.058Z,10.85
2023-02-12T14:40:52.936Z,10.92
2023-02-12T14:43:55.470Z,10.77
2023-02-12T14:46:24.777Z,10.34
2023-02-12T14:49:05.902Z,10.22
2023-02-12T14:51:47.044Z,10.50
2023-02-12T14:54:28.003Z,10.48
2023-02-12T14:57:01.642Z,9.89
2023-02-12T14:59:34.303Z,10.11
2023-02-12T15:02:05.483Z,10.22
2023-02-12T15:04:38.576Z,10.45
2023-02-12T15:07:13.388Z,10.67
2023-02-12T15:09:56.285Z,10.39
2023-02-12T15:12:38.590Z,10.49
2023-02-12T15:15:21.466Z,10.49
2023-02-12T15:18:05.404Z,10.50
2023-02-12T15:20:48.528Z,10.76
2023-02-12T15:23:38.146Z,10.85
2023-02-12T15:26:12.458Z,11.04
2023-02-12T15:28:42.316Z,10.37
2023-02-12T15:31:17.030Z,10.54
2023-02-12T15:33:51.042Z,10.40
2023-02-12T15:36:23.658Z,10.54
2023-02-12T15:38:54.423Z,10.46
2023-02-12T15:41:32.167Z,10.68
2023-02-12T15:44:18.047Z,10.91
2023-02-12T15:47:03.220Z,10.69
2023-02-12T15:49:35.919Z,10.62
2023-02-12T15:52:22.218Z,10.80
2023-02-12T15:54:51.645Z,10.96
2023-02-12T15:57:23.096Z,10.95
2023-02-12T15:59:54.319Z,10.93
2023-02-12T16:02:28.296Z,10.98
2023-02-12T16:04:57.317Z,11.01
2023-02-12T16:07:30.193Z,11.10
2023-02-12T16:09:59.045Z,11.02
2023-02-12T16:12:34.750Z,9.99
2023-02-12T16:15:04.365Z,10.01
2023-02-12T16:17:35.397Z,9.45
2023-02-12T16:20:09.154Z,9.39
2023-02-12T16:22:44.077Z,9.00
2023-02-12T16:25:26.744Z,9.12
2023-02-12T16:28:29.026Z,9.42
2023-02-12T16:31:27.030Z,9.11
2023-02-12T16:33:59.409Z,9.42
2023-02-12T16:36:38.641Z,9.54
2023-02-12T16:39:30.391Z,9.72
2023-02-12T16:41:59.401Z,9.88
2023-02-12T16:44:31.713Z,9.99
2023-02-12T16:47:02.028Z,9.80
2023-02-12T16:49:31.480Z,9.85
2023-02-12T16:52:28.667Z,9.10
2023-02-12T16:55:01.017Z,8.86
2023-02-12T16:57:32.620Z,8.26
2023-02-12T17:00:01.578Z,8.70
2023-02-12T17:02:30.723Z,7.81
2023-02-12T17:05:01.535Z,7.17
2023-02-12T17:07:31.340Z,7.82
2023-02-12T17:10:01.400Z,8.18
2023-02-12T17:12:30.586Z,8.43
2023-02-12T17:15:04.916Z,8.41
2023-02-12T17:17:33.765Z,8.40
2023-02-12T17:20:02.476Z,8.44
2023-02-12T17:22:31.472Z,8.50
2023-02-12T17:25:00.716Z,8.44
2023-02-12T17:27:29.621Z,8.16
2023-02-12T17:30:00.840Z,8.23
2023-02-12T17:32:29.657Z,8.29
2023-02-12T17:34:58.477Z,7.83
2023-02-12T17:37:27.270Z,7.82
2023-02-12T17:39:56.551Z,7.59
2023-02-12T17:42:25.849Z,7.60
2023-02-12T17:44:53.172Z,7.34
2023-02-12T17:47:21.824Z,7.14
2023-02-12T17:49:50.841Z,7.15
2023-02-12T17:52:19.080Z,7.34
2023-02-12T17:54:46.922Z,7.13
2023-02-12T17:57:16.156Z,7.34
2023-02-12T17:59:44.854Z,7.40
2023-02-12T18:02:13.248Z,7.41
2023-02-12T18:04:42.584Z,7.40
2023-02-12T18:07:10.593Z,7.30
2023-02-12T18:09:38.898Z,7.35
2023-02-12T18:12:07.805Z,7.29
2023-02-12T18:14:36.893Z,7.07
2023-02-12T18:17:06.380Z,6.52
2023-02-12T18:19:35.339Z,6.54
2023-02-12T18:22:03.707Z,6.93
2023-02-12T18:24:35.146Z,7.15
2023-02-12T18:27:04.044Z,7.31
2023-02-12T18:29:32.942Z,7.40
2023-02-12T18:32:01.604Z,7.55
2023-02-12T18:34:31.167Z,7.65
2023-02-12T18:37:00.897Z,7.79
2023-02-12T18:39:30.657Z,7.76
2023-02-12T18:41:59.494Z,7.77
2023-02-12T18:44:28.156Z,7.70
2023-02-12T18:46:59.270Z,7.82
2023-02-12T18:49:28.696Z,7.83
2023-02-12T18:51:58.035Z,7.86
2023-02-12T18:54:26.899Z,7.82
2023-02-12T18:56:55.785Z,7.71
2023-02-12T18:59:26.305Z,7.66
2023-02-12T19:01:56.414Z,7.74
2023-02-12T19:04:27.840Z,7.72
2023-02-12T19:06:56.542Z,7.65
2023-02-12T19:09:26.568Z,7.78
2023-02-12T19:11:57.225Z,7.57
2023-02-12T19:14:27.428Z,7.46
2023-02-12T19:16:56.168Z,7.41
2023-02-12T19:19:25.998Z,7.20
2023-02-12T19:21:54.712Z,6.92
2023-02-12T19:24:23.457Z,6.96
2023-02-12T19:26:52.961Z,7.03
2023-02-12T19:29:22.142Z,6.87
2023-02-12T19:31:51.387Z,6.96
2023-02-12T19:34:21.878Z,7.05
2023-02-12T19:36:51.005Z,6.95
2023-02-12T19:39:22.693Z,6.98
2023-02-12T19:41:52.410Z,6.95
2023-02-12T19:44:23.589Z,6.76
2023-02-12T19:46:53.151Z,6.80
2023-02-12T19:49:25.060Z,6.80
2023-02-12T19:51:54.062Z,6.67
2023-02-12T19:54:24.082Z,6.84
2023-02-12T19:56:55.443Z,6.89
2023-02-12T19:59:25.568Z,7.02
2023-02-12T20:01:54.678Z,7.03
2023-02-12T20:04:24.573Z,6.99
2023-02-12T20:06:53.898Z,7.01
2023-02-12T20:09:23.670Z,6.96
2023-02-12T20:11:53.469Z,6.89
2023-02-12T20:14:22.961Z,6.89
2023-02-12T20:16:55.290Z,6.80
2023-02-12T20:19:29.739Z,6.56
2023-02-12T20:22:01.644Z,6.39
2023-02-12T20:24:33.348Z,6.53
2023-02-12T20:27:03.404Z,6.51
2023-02-12T20:29:32.925Z,6.55
2023-02-12T20:32:01.881Z,6.47
2023-02-12T20:34:36.627Z,6.51
2023-02-12T20:37:11.757Z,6.37
2023-02-12T20:39:40.407Z,6.39
2023-02-12T20:42:09.245Z,6.34
2023-02-12T20:44:37.996Z,6.40
2023-02-12T20:47:07.199Z,6.19
2023-02-12T20:49:36.113Z,6.28
2023-02-12T20:52:05.082Z,6.24
2023-02-12T20:54:36.406Z,6.21
2023-02-12T20:57:07.024Z,5.88
2023-02-12T20:59:36.222Z,5.99
2023-02-12T21:02:05.202Z,6.05
2023-02-12T21:04:34.180Z,6.11
2023-02-12T21:07:03.056Z,6.05
2023-02-12T21:09:31.992Z,6.04
2023-02-12T21:12:00.998Z,5.82
2023-02-12T21:14:30.585Z,5.78
2023-02-12T21:16:59.557Z,5.36
2023-02-12T21:19:28.962Z,5.32
2023-02-12T21:22:01.037Z,5.29
2023-02-12T21:24:29.929Z,5.22
2023-02-12T21:26:58.652Z,5.25
2023-02-12T21:29:33.480Z,5.32
2023-02-12T21:32:02.410Z,5.31
2023-02-12T21:34:32.088Z,5.41
2023-02-12T21:37:00.938Z,5.46
2023-02-12T21:39:31.069Z,5.58
2023-02-12T21:42:03.198Z,5.51
2023-02-12T21:44:35.711Z,5.56
2023-02-12T21:47:07.572Z,5.49
2023-02-12T21:49:37.464Z,5.06
2023-02-12T21:52:06.769Z,4.82
2023-02-12T21:54:35.817Z,4.96
2023-02-12T21:57:04.697Z,4.92
2023-02-12T21:59:33.677Z,4.92
2023-02-12T22:02:02.806Z,4.97
2023-02-12T22:04:32.009Z,5.05
2023-02-12T22:07:03.400Z,4.65
2023-02-12T22:09:33.666Z,3.55
2023-02-12T22:12:03.376Z,3.76
2023-02-12T22:14:33.198Z,3.91
2023-02-12T22:17:03.049Z,4.18
2023-02-12T22:19:33.068Z,4.37
2023-02-12T22:22:02.850Z,4.55
2023-02-12T22:24:32.655Z,4.57
2023-02-12T22:27:01.786Z,4.63
2023-02-12T22:29:30.726Z,4.69
2023-02-12T22:31:59.780Z,4.87
2023-02-12T22:34:28.760Z,4.78
2023-02-12T22:36:58.432Z,4.73
2023-02-12T22:39:29.900Z,4.37
2023-02-12T22:41:59.644Z,4.39
2023-02-12T22:44:29.405Z,4.44
2023-02-12T22:46:59.866Z,4.33
2023-02-12T22:49:29.513Z,4.49
2023-02-12T22:51:59.218Z,4.49
2023-02-12T22:54:28.851Z,4.57
2023-02-12T22:56:58.770Z,4.54
2023-02-12T22:59:28.890Z,4.49
2023-02-12T23:02:03.339Z,4.52
2023-02-12T23:04:33.190Z,4.49
2023-02-12T23:07:03.006Z,4.66
2023-02-12T23:09:33.077Z,4.57
2023-02-12T23:12:07.560Z,4.45
2023-02-12T23:14:37.289Z,4.50
2023-02-12T23:17:07.467Z,4.38
2023-02-12T23:19:37.311Z,4.39
2023-02-12T23:22:07.098Z,4.27
2023-02-12T23:24:36.754Z,4.30
2023-02-12T23:27:05.600Z,4.38
2023-02-12T23:29:35.254Z,4.29
2023-02-12T23:32:04.535Z,4.27
2023-02-12T23:34:34.167Z,4.27
2023-02-12T23:37:03.897Z,4.40
2023-02-12T23:39:33.519Z,4.49
2023-02-12T23:42:03.521Z,4.16
2023-02-12T23:44:33.219Z,4.29
2023-02-12T23:47:02.419Z,4.33
2023-02-12T23:49:35.237Z,4.09
2023-02-12T23:52:05.210Z,4.17
2023-02-12T23:54:34.947Z,4.16
2023-02-12T23:57:04.650Z,4.20
2023-02-12T23:59:34.239Z,4.24
